createdAt,value
2019-01-12T00:00:51.092Z,0.97
2019-01-12T00:03:54.743Z,0.60
2019-01-12T00:06:58.176Z,1.00
2019-01-12T00:10:01.643Z,0.80
2019-01-12T00:13:06.218Z,0.80
2019-01-12T00:16:09.672Z,0.70
2019-01-12T00:19:13.182Z,1.00
2019-01-12T00:22:16.673Z,1.00
2019-01-12T00:25:20.173Z,0.90
2019-01-12T00:28:24.594Z,1.00
2019-01-12T00:31:28.085Z,0.90
2019-01-12T00:34:31.562Z,1.00
2019-01-12T00:37:35.093Z,1.13
2019-01-12T00:40:38.610Z,1.13
2019-01-12T00:43:42.112Z,1.00
2019-01-12T00:46:45.599Z,1.00
2019-01-12T00:49:50.174Z,1.30
2019-01-12T00:52:53.639Z,1.03
2019-01-12T00:55:57.127Z,0.93
2019-01-12T00:59:00.575Z,1.00
2019-01-12T01:02:04.023Z,0.83
2019-01-12T01:05:07.930Z,1.00
2019-01-12T01:08:11.437Z,1.20
2019-01-12T01:11:15.042Z,0.97
2019-01-12T01:14:18.527Z,1.00
2019-01-12T01:17:22.042Z,0.87
2019-01-12T01:20:27.590Z,1.10
2019-01-12T01:23:31.110Z,0.90
2019-01-12T01:26:34.597Z,0.90
2019-01-12T01:29:38.083Z,1.10
2019-01-12T01:32:41.520Z,1.43
2019-01-12T01:35:45.013Z,1.10
2019-01-12T01:38:48.592Z,1.30
2019-01-12T01:41:53.264Z,1.10
2019-01-12T01:44:56.727Z,1.03
2019-01-12T01:48:00.250Z,0.93
2019-01-12T01:51:03.848Z,1.13
2019-01-12T01:54:09.372Z,1.20
2019-01-12T01:57:12.902Z,1.20
2019-01-12T02:00:18.531Z,1.47
2019-01-12T02:03:22.041Z,1.27
2019-01-12T02:06:25.537Z,1.50
2019-01-12T02:09:29.024Z,1.40
2019-01-12T02:12:32.590Z,1.30
2019-01-12T02:15:36.138Z,1.13
2019-01-12T02:18:40.600Z,1.27
2019-01-12T02:21:44.081Z,1.23
2019-01-12T02:24:47.560Z,1.23
2019-01-12T02:27:51.168Z,1.10
2019-01-12T02:30:54.690Z,1.17
2019-01-12T02:33:59.199Z,1.00
2019-01-12T02:37:02.640Z,1.23
2019-01-12T02:40:06.127Z,1.30
2019-01-12T02:43:09.692Z,1.20
2019-01-12T02:46:13.209Z,1.47
2019-01-12T02:49:16.641Z,1.00
2019-01-12T02:52:20.121Z,1.30
2019-01-12T02:55:23.639Z,1.00
2019-01-12T02:58:27.179Z,1.50
2019-01-12T03:01:30.716Z,1.10
2019-01-12T03:04:34.147Z,1.33
2019-01-12T03:07:37.617Z,1.60
2019-01-12T03:10:41.213Z,0.90
2019-01-12T03:13:44.706Z,1.40
2019-01-12T03:16:48.218Z,1.10
2019-01-12T03:19:51.697Z,1.10
2019-01-12T03:22:55.126Z,1.30
2019-01-12T03:25:58.611Z,1.33
2019-01-12T03:29:02.098Z,1.40
2019-01-12T03:32:05.724Z,1.50
2019-01-12T03:35:09.196Z,1.10
2019-01-12T03:38:12.706Z,1.30
2019-01-12T03:41:16.148Z,1.37
2019-01-12T03:44:19.611Z,1.40
2019-01-12T03:47:23.117Z,1.20
2019-01-12T03:50:26.559Z,1.07
2019-01-12T03:53:30.159Z,1.17
2019-01-12T03:56:33.643Z,1.30
2019-01-12T03:59:37.207Z,1.23
2019-01-12T04:02:40.732Z,1.23
2019-01-12T04:05:45.238Z,1.30
2019-01-12T04:08:48.743Z,1.20
2019-01-12T04:11:52.255Z,1.20
2019-01-12T04:14:56.929Z,1.20
2019-01-12T04:18:00.509Z,1.23
2019-01-12T04:21:05.010Z,1.10
2019-01-12T04:24:08.496Z,1.20
2019-01-12T04:27:17.955Z,1.40
2019-01-12T04:30:21.435Z,1.33
2019-01-12T04:33:25.973Z,1.00
2019-01-12T04:36:35.503Z,1.13
2019-01-12T04:39:38.940Z,1.10
2019-01-12T04:42:42.413Z,1.30
2019-01-12T04:45:47.087Z,1.40
2019-01-12T04:48:50.552Z,1.27
2019-01-12T04:51:54.031Z,1.27
2019-01-12T04:54:57.633Z,1.53
2019-01-12T04:58:01.153Z,1.57
2019-01-12T05:01:04.635Z,1.47
2019-01-12T05:04:08.140Z,1.27
2019-01-12T05:07:11.579Z,1.30
2019-01-12T05:10:15.201Z,1.20
2019-01-12T05:13:18.842Z,1.30
2019-01-12T05:16:22.293Z,1.20
2019-01-12T05:19:25.755Z,1.27
2019-01-12T05:22:30.181Z,1.40
2019-01-12T05:25:33.671Z,1.30
2019-01-12T05:28:37.119Z,1.33
2019-01-12T05:31:40.584Z,1.30
2019-01-12T05:34:44.073Z,1.53
2019-01-12T05:37:47.574Z,1.20
2019-01-12T05:40:51.066Z,1.47
2019-01-12T05:43:54.611Z,1.27
2019-01-12T05:46:58.191Z,1.37
2019-01-12T05:50:01.694Z,1.30
2019-01-12T05:53:06.218Z,1.20
2019-01-12T05:56:10.745Z,1.23
2019-01-12T05:59:14.228Z,1.10
2019-01-12T06:02:17.995Z,1.70
2019-01-12T06:05:21.630Z,1.60
2019-01-12T06:08:25.074Z,1.27
2019-01-12T06:11:28.531Z,1.13
2019-01-12T06:14:31.982Z,1.20
2019-01-12T06:17:37.499Z,1.20
2019-01-12T06:20:42.011Z,1.17
2019-01-12T06:23:45.534Z,1.33
2019-01-12T06:26:49.035Z,1.30
2019-01-12T06:29:52.482Z,1.13
2019-01-12T06:32:58.052Z,1.40
2019-01-12T06:36:01.553Z,1.43
2019-01-12T06:39:08.832Z,1.50
2019-01-12T06:42:12.462Z,1.30
2019-01-12T06:45:16.559Z,1.37
2019-01-12T06:48:20.095Z,1.60
2019-01-12T06:51:23.565Z,1.23
2019-01-12T06:54:27.095Z,1.45
2019-01-12T06:57:30.575Z,1.27
2019-01-12T07:00:36.131Z,1.37
2019-01-12T07:03:39.735Z,1.30
2019-01-12T07:06:43.322Z,1.20
2019-01-12T07:09:46.777Z,1.13
2019-01-12T07:12:50.238Z,1.40
2019-01-12T07:15:53.885Z,1.30
2019-01-12T07:18:57.535Z,1.43
2019-01-12T07:22:01.030Z,1.60
2019-01-12T07:25:04.784Z,1.20
2019-01-12T07:28:08.250Z,1.40
2019-01-12T07:31:11.741Z,1.00
2019-01-12T07:34:15.248Z,1.63
2019-01-12T07:37:20.783Z,1.23
2019-01-12T07:40:24.285Z,1.13
2019-01-12T07:43:28.939Z,1.17
2019-01-12T07:46:32.448Z,1.47
2019-01-12T07:49:35.934Z,1.33
2019-01-12T07:52:39.378Z,1.03
2019-01-12T07:55:42.842Z,1.40
2019-01-12T07:58:52.508Z,1.50
2019-01-12T08:01:56.004Z,1.30
2019-01-12T08:05:00.551Z,1.40
2019-01-12T08:08:04.207Z,1.30
2019-01-12T08:11:07.699Z,1.37
2019-01-12T08:14:11.204Z,1.23
2019-01-12T08:17:14.697Z,1.20
2019-01-12T08:20:18.210Z,1.47
2019-01-12T08:23:21.698Z,1.17
2019-01-12T08:26:30.955Z,1.30
2019-01-12T08:29:30.423Z,1.10
2019-01-12T08:32:34.054Z,1.10
2019-01-12T08:35:37.554Z,1.20
2019-01-12T08:38:42.123Z,1.33
2019-01-12T08:41:45.589Z,1.30
2019-01-12T08:44:50.096Z,1.37
2019-01-12T08:47:53.657Z,1.40
2019-01-12T08:50:57.105Z,1.20
2019-01-12T08:54:00.642Z,1.20
2019-01-12T08:57:10.048Z,1.30
2019-01-12T09:00:18.423Z,1.67
2019-01-12T09:03:23.031Z,1.67
2019-01-12T09:06:26.480Z,1.20
2019-01-12T09:09:30.014Z,1.30
2019-01-12T09:12:33.501Z,1.47
2019-01-12T09:15:36.988Z,1.10
2019-01-12T09:18:40.486Z,1.10
2019-01-12T09:21:43.991Z,1.10
2019-01-12T09:24:47.561Z,1.57
2019-01-12T09:27:51.306Z,1.60
2019-01-12T09:30:57.994Z,1.30
2019-01-12T09:34:02.546Z,1.20
2019-01-12T09:37:06.095Z,1.37
2019-01-12T09:40:11.761Z,1.40
2019-01-12T09:43:15.351Z,1.20
2019-01-12T09:46:19.017Z,1.03
2019-01-12T09:49:22.670Z,1.53
2019-01-12T09:52:26.271Z,1.20
2019-01-12T09:55:29.890Z,0.90
2019-01-12T09:58:33.363Z,1.20
2019-01-12T10:01:36.884Z,1.30
2019-01-12T10:04:40.427Z,1.13
2019-01-12T10:07:45.076Z,1.20
2019-01-12T10:10:48.752Z,1.60
2019-01-12T10:13:52.438Z,1.20
2019-01-12T10:16:57.143Z,1.20
2019-01-12T10:20:00.770Z,0.97
2019-01-12T10:23:05.285Z,0.97
2019-01-12T10:26:08.770Z,0.90
2019-01-12T10:29:12.273Z,1.00
2019-01-12T10:32:16.794Z,1.20
2019-01-12T10:35:20.335Z,1.20
2019-01-12T10:38:23.899Z,1.20
2019-01-12T10:41:28.643Z,1.17
2019-01-12T10:44:33.258Z,1.07
2019-01-12T10:47:37.381Z,0.90
2019-01-12T10:50:40.880Z,1.20
2019-01-12T10:53:44.310Z,1.00
2019-01-12T10:56:48.956Z,1.20
2019-01-12T10:59:52.412Z,1.10
2019-01-12T11:02:55.935Z,1.10
2019-01-12T11:05:59.411Z,0.97
2019-01-12T11:09:10.075Z,1.03
2019-01-12T11:12:19.245Z,0.93
2019-01-12T11:15:22.922Z,1.00
2019-01-12T11:18:26.520Z,1.00
2019-01-12T11:21:30.012Z,1.03
2019-01-12T11:24:33.534Z,1.00
2019-01-12T11:27:37.016Z,0.80
2019-01-12T11:30:40.599Z,0.90
2019-01-12T11:33:44.241Z,1.30
2019-01-12T11:36:47.748Z,1.10
2019-01-12T11:39:51.245Z,1.00
2019-01-12T11:42:54.732Z,0.97
2019-01-12T11:45:58.248Z,1.00
2019-01-12T11:49:01.739Z,0.90
2019-01-12T11:52:05.287Z,1.13
2019-01-12T11:55:09.586Z,1.13
2019-01-12T11:58:13.065Z,0.93
2019-01-12T12:01:19.835Z,0.90
2019-01-12T12:04:23.429Z,0.80
2019-01-12T12:07:27.159Z,0.97
2019-01-12T12:10:30.864Z,0.80
2019-01-12T12:13:34.569Z,1.10
2019-01-12T12:16:38.149Z,1.10
2019-01-12T12:19:41.664Z,0.97
2019-01-12T12:22:45.282Z,1.00
2019-01-12T12:25:48.870Z,0.87
2019-01-12T12:28:54.958Z,0.70
2019-01-12T12:31:58.608Z,0.90
2019-01-12T12:35:03.476Z,1.20
2019-01-12T12:38:07.251Z,0.80
2019-01-12T12:41:10.872Z,0.80
2019-01-12T12:44:14.394Z,0.80
2019-01-12T12:47:17.933Z,0.70
2019-01-12T12:50:21.628Z,0.83
2019-01-12T12:53:26.396Z,0.97
2019-01-12T12:56:30.101Z,0.80
2019-01-12T12:59:34.737Z,0.80
2019-01-12T13:02:38.507Z,0.87
2019-01-12T13:05:42.349Z,1.10
2019-01-12T13:08:48.525Z,0.90
2019-01-12T13:11:51.397Z,0.90
2019-01-12T13:14:56.042Z,0.90
2019-01-12T13:17:59.539Z,0.90
2019-01-12T13:21:03.047Z,0.80
2019-01-12T13:24:06.547Z,0.70
2019-01-12T13:27:12.144Z,0.90
2019-01-12T13:30:17.944Z,0.70
2019-01-12T13:33:21.550Z,0.90
2019-01-12T13:36:25.056Z,0.90
2019-01-12T13:39:32.107Z,1.00
2019-01-12T13:42:33.910Z,1.00
2019-01-12T13:45:37.538Z,1.00
2019-01-12T13:48:41.001Z,0.90
2019-01-12T13:51:45.427Z,1.00
2019-01-12T13:54:48.941Z,1.27
2019-01-12T13:57:52.543Z,1.03
2019-01-12T14:00:56.162Z,0.90
2019-01-12T14:03:59.625Z,1.20
2019-01-12T14:07:04.168Z,1.20
2019-01-12T14:10:09.290Z,1.23
2019-01-12T14:13:12.741Z,1.00
2019-01-12T14:16:17.324Z,0.90
2019-01-12T14:19:20.818Z,0.93
2019-01-12T14:22:24.327Z,1.00
2019-01-12T14:25:28.955Z,0.90
2019-01-12T14:28:32.568Z,0.90
2019-01-12T14:31:36.175Z,1.00
2019-01-12T14:34:39.762Z,1.00
2019-01-12T14:37:44.414Z,0.87
2019-01-12T14:40:47.993Z,0.80
2019-01-12T14:43:51.496Z,0.80
2019-01-12T14:46:55.003Z,0.90
2019-01-12T14:49:58.515Z,0.80
2019-01-12T14:53:02.045Z,0.80
2019-01-12T14:56:05.480Z,0.90
2019-01-12T14:59:09.112Z,1.00
2019-01-12T15:02:13.753Z,0.93
2019-01-12T15:05:19.004Z,0.87
2019-01-12T15:08:22.469Z,0.80
2019-01-12T15:11:26.198Z,0.97
2019-01-12T15:14:29.788Z,0.80
2019-01-12T15:17:33.289Z,0.90
2019-01-12T15:20:36.777Z,0.60
2019-01-12T15:23:40.282Z,1.00
2019-01-12T15:26:43.804Z,0.80
2019-01-12T15:29:47.282Z,0.85
2019-01-12T15:32:50.787Z,0.70
2019-01-12T15:35:54.328Z,0.90
2019-01-12T15:39:01.635Z,0.90
2019-01-12T15:42:03.255Z,0.80
2019-01-12T15:45:09.306Z,0.77
2019-01-12T15:48:12.868Z,1.10
2019-01-12T15:51:16.572Z,0.82
2019-01-12T15:54:20.202Z,0.80
2019-01-12T15:57:23.653Z,0.70
2019-01-12T16:00:29.283Z,0.78
2019-01-12T16:03:32.758Z,0.80
2019-01-12T16:06:36.269Z,0.83
2019-01-12T16:09:39.761Z,0.70
2019-01-12T16:12:44.307Z,0.82
2019-01-12T16:15:47.783Z,0.97
2019-01-12T16:18:51.283Z,0.82
2019-01-12T16:21:54.795Z,0.80
2019-01-12T16:24:58.385Z,0.90
2019-01-12T16:28:02.126Z,0.73
2019-01-12T16:31:05.717Z,0.70
2019-01-12T16:34:09.219Z,0.93
2019-01-12T16:37:12.708Z,0.90
2019-01-12T16:40:18.359Z,0.90
2019-01-12T16:43:22.017Z,0.77
2019-01-12T16:46:25.468Z,0.70
2019-01-12T16:49:28.953Z,0.80
2019-01-12T16:52:32.472Z,0.90
2019-01-12T16:55:35.962Z,1.07
2019-01-12T16:58:39.524Z,0.70
2019-01-12T17:01:43.195Z,0.82
2019-01-12T17:04:46.693Z,0.70
2019-01-12T17:07:50.185Z,0.90
2019-01-12T17:10:53.671Z,0.62
2019-01-12T17:13:57.110Z,0.70
2019-01-12T17:17:01.730Z,0.60
2019-01-12T17:20:06.326Z,0.72
2019-01-12T17:23:09.929Z,0.88
2019-01-12T17:26:14.440Z,0.70
2019-01-12T17:29:19.023Z,0.60
2019-01-12T17:32:23.516Z,0.80
2019-01-12T17:35:27.289Z,0.75
2019-01-12T17:38:30.948Z,0.85
2019-01-12T17:41:34.420Z,0.80
2019-01-12T17:44:38.940Z,0.70
2019-01-12T17:47:42.471Z,0.85
2019-01-12T17:50:46.040Z,0.65
2019-01-12T17:53:49.649Z,0.90
2019-01-12T17:56:53.081Z,1.15
2019-01-12T17:59:56.658Z,0.88
2019-01-12T18:03:01.289Z,0.75
2019-01-12T18:06:04.882Z,0.80
2019-01-12T18:09:09.415Z,0.70
2019-01-12T18:12:12.906Z,0.53
2019-01-12T18:15:16.437Z,0.78
2019-01-12T18:18:19.909Z,0.80
2019-01-12T18:21:23.412Z,0.85
2019-01-12T18:24:26.905Z,0.80
2019-01-12T18:27:30.405Z,0.80
2019-01-12T18:30:33.951Z,0.78
2019-01-12T18:33:37.432Z,0.75
2019-01-12T18:36:40.913Z,0.90
2019-01-12T18:39:45.441Z,0.80
2019-01-12T18:42:49.964Z,0.68
2019-01-12T18:45:53.463Z,0.75
2019-01-12T18:48:56.988Z,0.70
2019-01-12T18:52:01.553Z,0.82
2019-01-12T18:55:05.251Z,0.70
2019-01-12T18:58:08.697Z,0.80
2019-01-12T19:01:12.209Z,0.78
2019-01-12T19:04:16.737Z,0.60
2019-01-12T19:07:20.221Z,0.78
2019-01-12T19:10:23.878Z,0.90
2019-01-12T19:13:27.442Z,0.80
2019-01-12T19:16:30.926Z,0.82
2019-01-12T19:19:35.466Z,0.68
2019-01-12T19:22:38.892Z,0.70
2019-01-12T19:25:42.484Z,0.80
2019-01-12T19:28:46.034Z,0.75
2019-01-12T19:31:49.665Z,0.80
2019-01-12T19:34:53.165Z,0.70
2019-01-12T19:38:02.610Z,0.80
2019-01-12T19:41:06.115Z,0.80
2019-01-12T19:44:09.610Z,0.85
2019-01-12T19:47:13.205Z,0.70
2019-01-12T19:50:18.888Z,0.82
2019-01-12T19:53:23.394Z,0.70
2019-01-12T19:56:27.001Z,0.70
2019-01-12T19:59:30.447Z,0.80
2019-01-12T20:02:34.911Z,0.70
2019-01-12T20:05:38.418Z,0.72
2019-01-12T20:08:43.024Z,0.72
2019-01-12T20:11:46.634Z,0.80
2019-01-12T20:14:50.216Z,0.93
2019-01-12T20:17:53.849Z,0.80
2019-01-12T20:20:57.363Z,0.62
2019-01-12T20:24:00.912Z,0.62
2019-01-12T20:27:04.557Z,0.60
2019-01-12T20:30:13.918Z,0.90
2019-01-12T20:33:23.851Z,0.80
2019-01-12T20:37:00.353Z,0.72
2019-01-12T20:40:22.661Z,0.68
2019-01-12T20:43:54.343Z,0.80
2019-01-12T20:47:09.144Z,0.98
2019-01-12T20:50:38.605Z,0.90
2019-01-12T20:54:19.702Z,0.65
2019-01-12T20:57:41.782Z,0.70
2019-01-12T21:01:25.910Z,0.80
2019-01-12T21:05:25.289Z,0.50
2019-01-12T21:09:05.960Z,0.60
2019-01-12T21:12:50.005Z,0.78
2019-01-12T21:16:01.342Z,0.62
2019-01-12T21:19:04.914Z,0.80
2019-01-12T21:22:09.423Z,0.55
2019-01-12T21:25:14.987Z,0.60
2019-01-12T21:28:18.476Z,0.80
2019-01-12T21:31:24.146Z,0.80
2019-01-12T21:34:27.844Z,0.70
2019-01-12T21:37:31.447Z,0.60
2019-01-12T21:40:35.976Z,0.60
2019-01-12T21:43:39.456Z,0.57
2019-01-12T21:46:42.976Z,0.70
2019-01-12T21:49:48.564Z,0.80
2019-01-12T21:52:52.308Z,0.68
2019-01-12T21:55:56.949Z,0.70
2019-01-12T21:59:02.518Z,0.80
2019-01-12T22:02:06.130Z,0.88
2019-01-12T22:05:10.055Z,0.80
2019-01-12T22:08:13.601Z,0.70
2019-01-12T22:11:17.236Z,0.70
2019-01-12T22:14:20.860Z,0.70
2019-01-12T22:17:24.356Z,0.65
2019-01-12T22:20:27.844Z,0.60
2019-01-12T22:23:33.032Z,0.60
2019-01-12T22:26:36.664Z,0.60
2019-01-12T22:29:40.160Z,0.70
2019-01-12T22:32:43.715Z,0.82
2019-01-12T22:35:48.196Z,0.60
2019-01-12T22:38:51.676Z,0.70
2019-01-12T22:41:55.123Z,0.65
2019-01-12T22:44:58.589Z,0.70
2019-01-12T22:48:02.127Z,0.60
2019-01-12T22:51:06.749Z,0.70
2019-01-12T22:54:12.257Z,0.78
2019-01-12T22:57:16.800Z,0.70
2019-01-12T23:00:31.341Z,0.80
2019-01-12T23:03:34.883Z,0.40
2019-01-12T23:06:38.370Z,0.45
2019-01-12T23:09:43.890Z,0.68
2019-01-12T23:12:47.412Z,0.60
2019-01-12T23:15:50.905Z,0.70
2019-01-12T23:18:54.393Z,0.50
2019-01-12T23:21:58.924Z,0.72
2019-01-12T23:25:02.441Z,0.55
2019-01-12T23:28:05.919Z,0.70
2019-01-12T23:31:09.443Z,0.47
2019-01-12T23:34:12.949Z,0.50
2019-01-12T23:37:16.381Z,0.60
2019-01-12T23:40:19.873Z,0.65
2019-01-12T23:43:23.438Z,0.80
2019-01-12T23:46:26.937Z,0.60
2019-01-12T23:49:30.438Z,0.60
2019-01-12T23:52:33.969Z,0.62
2019-01-12T23:55:37.435Z,0.62
2019-01-12T23:58:40.922Z,0.78
